sensor_id;sensor_type;location;lat;lon;timestamp;P1;durP1;ratioP1;P2;durP2;ratioP2
37085;SDS011;23001;45.952;12.676;2022-12-29T00:06:06;26.55;;;18.15;;
37085;SDS011;23001;45.952;12.676;2022-12-29T00:15:21;19.67;;;16.13;;
37085;SDS011;23001;45.952;12.676;2022-12-29T00:21:18;23.85;;;17.35;;
37085;SDS011;23001;45.952;12.676;2022-12-29T00:24:29;21.52;;;16.25;;
37085;SDS011;23001;45.952;12.676;2022-12-29T00:30:49;22.33;;;16.50;;
37085;SDS011;23001;45.952;12.676;2022-12-29T00:34:02;20.95;;;16.10;;
37085;SDS011;23001;45.952;12.676;2022-12-29T00:47:13;18.33;;;14.90;;
37085;SDS011;23001;45.952;12.676;2022-12-29T00:50:24;18.38;;;14.75;;
37085;SDS011;23001;45.952;12.676;2022-12-29T00:56:42;21.42;;;15.15;;
37085;SDS011;23001;45.952;12.676;2022-12-29T00:59:48;19.00;;;15.18;;
37085;SDS011;23001;45.952;12.676;2022-12-29T01:02:43;20.50;;;15.63;;
37085;SDS011;23001;45.952;12.676;2022-12-29T01:05:23;18.38;;;15.10;;
37085;SDS011;23001;45.952;12.676;2022-12-29T01:08:48;16.70;;;14.23;;
37085;SDS011;23001;45.952;12.676;2022-12-29T01:11:39;20.52;;;15.05;;
37085;SDS011;23001;45.952;12.676;2022-12-29T01:14:22;17.80;;;14.40;;
37085;SDS011;23001;45.952;12.676;2022-12-29T01:17:05;17.52;;;14.43;;
37085;SDS011;23001;45.952;12.676;2022-12-29T01:20:03;17.33;;;13.98;;
37085;SDS011;23001;45.952;12.676;2022-12-29T01:40:27;18.88;;;14.23;;
37085;SDS011;23001;45.952;12.676;2022-12-29T02:01:20;21.05;;;15.27;;
37085;SDS011;23001;45.952;12.676;2022-12-29T02:11:27;20.58;;;16.40;;
37085;SDS011;23001;45.952;12.676;2022-12-29T02:35:37;21.42;;;16.70;;
37085;SDS011;23001;45.952;12.676;2022-12-29T02:50:17;21.08;;;15.13;;
37085;SDS011;23001;45.952;12.676;2022-12-29T02:53:29;21.23;;;16.55;;
37085;SDS011;23001;45.952;12.676;2022-12-29T02:56:22;19.83;;;14.95;;
37085;SDS011;23001;45.952;12.676;2022-12-29T02:59:18;19.27;;;15.82;;
37085;SDS011;23001;45.952;12.676;2022-12-29T03:08:17;20.37;;;15.97;;
37085;SDS011;23001;45.952;12.676;2022-12-29T03:11:11;20.35;;;15.35;;
37085;SDS011;23001;45.952;12.676;2022-12-29T03:17:53;19.08;;;15.20;;
37085;SDS011;23001;45.952;12.676;2022-12-29T03:20:58;17.80;;;14.57;;
37085;SDS011;23001;45.952;12.676;2022-12-29T03:23:44;19.67;;;14.20;;
37085;SDS011;23001;45.952;12.676;2022-12-29T03:26:17;20.60;;;14.95;;
37085;SDS011;23001;45.952;12.676;2022-12-29T03:29:08;19.38;;;15.40;;
37085;SDS011;23001;45.952;12.676;2022-12-29T03:31:44;19.15;;;14.98;;
37085;SDS011;23001;45.952;12.676;2022-12-29T03:34:17;21.17;;;14.88;;
37085;SDS011;23001;45.952;12.676;2022-12-29T03:37:05;21.38;;;15.80;;
37085;SDS011;23001;45.952;12.676;2022-12-29T03:42:52;19.45;;;14.57;;
37085;SDS011;23001;45.952;12.676;2022-12-29T03:45:34;19.77;;;15.70;;
37085;SDS011;23001;45.952;12.676;2022-12-29T03:48:14;19.17;;;15.82;;
37085;SDS011;23001;45.952;12.676;2022-12-29T03:50:56;18.73;;;15.60;;
37085;SDS011;23001;45.952;12.676;2022-12-29T03:53:36;18.23;;;15.82;;
37085;SDS011;23001;45.952;12.676;2022-12-29T03:56:10;17.00;;;14.35;;
37085;SDS011;23001;45.952;12.676;2022-12-29T03:58:47;16.30;;;14.13;;
37085;SDS011;23001;45.952;12.676;2022-12-29T04:01:23;17.58;;;15.65;;
37085;SDS011;23001;45.952;12.676;2022-12-29T04:03:57;19.60;;;15.55;;
37085;SDS011;23001;45.952;12.676;2022-12-29T04:07:11;18.92;;;14.55;;
37085;SDS011;23001;45.952;12.676;2022-12-29T04:09:44;17.70;;;14.05;;
37085;SDS011;23001;45.952;12.676;2022-12-29T04:12:28;17.05;;;14.45;;
37085;SDS011;23001;45.952;12.676;2022-12-29T04:15:05;15.60;;;13.68;;
37085;SDS011;23001;45.952;12.676;2022-12-29T04:18:09;16.80;;;13.68;;
37085;SDS011;23001;45.952;12.676;2022-12-29T04:20:54;16.42;;;14.05;;
37085;SDS011;23001;45.952;12.676;2022-12-29T04:23:49;18.83;;;14.90;;
37085;SDS011;23001;45.952;12.676;2022-12-29T04:26:23;18.40;;;13.82;;
37085;SDS011;23001;45.952;12.676;2022-12-29T04:28:58;18.20;;;14.27;;
37085;SDS011;23001;45.952;12.676;2022-12-29T04:31:35;16.88;;;13.73;;
37085;SDS011;23001;45.952;12.676;2022-12-29T04:34:15;16.85;;;14.55;;
37085;SDS011;23001;45.952;12.676;2022-12-29T04:37:11;20.70;;;14.80;;
37085;SDS011;23001;45.952;12.676;2022-12-29T04:40:00;18.55;;;13.70;;
37085;SDS011;23001;45.952;12.676;2022-12-29T04:45:44;16.75;;;13.43;;
37085;SDS011;23001;45.952;12.676;2022-12-29T04:51:42;19.50;;;13.88;;
37085;SDS011;23001;45.952;12.676;2022-12-29T04:57:33;18.85;;;14.20;;
37085;SDS011;23001;45.952;12.676;2022-12-29T05:00:11;18.30;;;14.05;;
37085;SDS011;23001;45.952;12.676;2022-12-29T05:06:14;18.75;;;14.82;;
37085;SDS011;23001;45.952;12.676;2022-12-29T05:16:07;20.00;;;13.90;;
37085;SDS011;23001;45.952;12.676;2022-12-29T05:19:18;19.08;;;14.55;;
37085;SDS011;23001;45.952;12.676;2022-12-29T05:21:52;17.35;;;14.43;;
37085;SDS011;23001;45.952;12.676;2022-12-29T05:42:34;19.80;;;15.85;;
37085;SDS011;23001;45.952;12.676;2022-12-29T05:52:25;21.10;;;14.88;;
37085;SDS011;23001;45.952;12.676;2022-12-29T06:06:34;18.92;;;14.93;;
37085;SDS011;23001;45.952;12.676;2022-12-29T06:15:51;26.13;;;16.10;;
37085;SDS011;23001;45.952;12.676;2022-12-29T06:18:17;21.50;;;15.32;;
37085;SDS011;23001;45.952;12.676;2022-12-29T06:20:43;26.20;;;17.45;;
37085;SDS011;23001;45.952;12.676;2022-12-29T06:23:11;59.97;;;28.13;;
37085;SDS011;23001;45.952;12.676;2022-12-29T06:25:38;59.75;;;29.25;;
37085;SDS011;23001;45.952;12.676;2022-12-29T06:28:06;66.03;;;32.55;;
37085;SDS011;23001;45.952;12.676;2022-12-29T06:30:36;68.25;;;33.25;;
37085;SDS011;23001;45.952;12.676;2022-12-29T06:33:01;59.13;;;30.25;;
37085;SDS011;23001;45.952;12.676;2022-12-29T06:35:27;52.28;;;28.15;;
37085;SDS011;23001;45.952;12.676;2022-12-29T06:37:53;53.53;;;27.52;;
37085;SDS011;23001;45.952;12.676;2022-12-29T06:40:19;49.03;;;26.25;;
37085;SDS011;23001;45.952;12.676;2022-12-29T06:42:44;42.00;;;24.65;;
37085;SDS011;23001;45.952;12.676;2022-12-29T06:45:10;36.25;;;21.50;;
37085;SDS011;23001;45.952;12.676;2022-12-29T06:47:36;30.17;;;20.08;;
37085;SDS011;23001;45.952;12.676;2022-12-29T06:50:02;28.20;;;18.35;;
37085;SDS011;23001;45.952;12.676;2022-12-29T06:58:13;25.77;;;16.23;;
37085;SDS011;23001;45.952;12.676;2022-12-29T07:00:47;22.73;;;15.93;;
37085;SDS011;23001;45.952;12.676;2022-12-29T07:03:13;24.35;;;17.15;;
37085;SDS011;23001;45.952;12.676;2022-12-29T07:05:42;25.50;;;16.70;;
37085;SDS011;23001;45.952;12.676;2022-12-29T07:08:08;24.30;;;16.60;;
37085;SDS011;23001;45.952;12.676;2022-12-29T07:10:33;23.13;;;16.92;;
37085;SDS011;23001;45.952;12.676;2022-12-29T07:16:21;23.00;;;17.17;;
37085;SDS011;23001;45.952;12.676;2022-12-29T07:18:47;24.17;;;16.63;;
37085;SDS011;23001;45.952;12.676;2022-12-29T07:21:13;22.00;;;15.95;;
37085;SDS011;23001;45.952;12.676;2022-12-29T07:23:39;24.25;;;17.73;;
37085;SDS011;23001;45.952;12.676;2022-12-29T07:26:06;23.60;;;16.77;;
37085;SDS011;23001;45.952;12.676;2022-12-29T07:28:34;25.05;;;17.45;;
37085;SDS011;23001;45.952;12.676;2022-12-29T07:31:00;24.35;;;17.52;;
37085;SDS011;23001;45.952;12.676;2022-12-29T07:33:30;25.42;;;17.88;;
37085;SDS011;23001;45.952;12.676;2022-12-29T07:35:56;27.73;;;17.55;;
37085;SDS011;23001;45.952;12.676;2022-12-29T07:38:22;23.90;;;18.67;;
37085;SDS011;23001;45.952;12.676;2022-12-29T07:40:48;27.38;;;20.50;;
37085;SDS011;23001;45.952;12.676;2022-12-29T07:43:14;40.65;;;24.40;;
37085;SDS011;23001;45.952;12.676;2022-12-29T07:45:39;27.60;;;18.65;;
37085;SDS011;23001;45.952;12.676;2022-12-29T07:48:05;28.45;;;18.70;;
37085;SDS011;23001;45.952;12.676;2022-12-29T07:50:37;25.65;;;18.15;;
37085;SDS011;23001;45.952;12.676;2022-12-29T07:53:03;25.38;;;17.85;;
37085;SDS011;23001;45.952;12.676;2022-12-29T07:55:29;24.30;;;19.00;;
37085;SDS011;23001;45.952;12.676;2022-12-29T07:57:55;28.52;;;19.20;;
37085;SDS011;23001;45.952;12.676;2022-12-29T08:00:30;26.98;;;19.92;;
37085;SDS011;23001;45.952;12.676;2022-12-29T08:02:58;23.48;;;18.92;;
37085;SDS011;23001;45.952;12.676;2022-12-29T08:05:24;28.65;;;18.23;;
37085;SDS011;23001;45.952;12.676;2022-12-29T08:07:50;25.50;;;18.92;;
37085;SDS011;23001;45.952;12.676;2022-12-29T08:10:21;28.33;;;19.48;;
37085;SDS011;23001;45.952;12.676;2022-12-29T08:19:22;25.83;;;17.38;;
37085;SDS011;23001;45.952;12.676;2022-12-29T08:22:13;24.92;;;17.77;;
37085;SDS011;23001;45.952;12.676;2022-12-29T08:24:40;26.60;;;18.17;;
37085;SDS011;23001;45.952;12.676;2022-12-29T08:27:15;25.73;;;18.88;;
37085;SDS011;23001;45.952;12.676;2022-12-29T08:29:53;26.83;;;18.45;;
37085;SDS011;23001;45.952;12.676;2022-12-29T08:32:21;26.65;;;18.40;;
37085;SDS011;23001;45.952;12.676;2022-12-29T08:34:47;29.38;;;19.88;;
37085;SDS011;23001;45.952;12.676;2022-12-29T08:37:16;28.23;;;20.33;;
37085;SDS011;23001;45.952;12.676;2022-12-29T08:39:42;31.73;;;20.35;;
37085;SDS011;23001;45.952;12.676;2022-12-29T08:42:10;28.33;;;20.75;;
37085;SDS011;23001;45.952;12.676;2022-12-29T08:44:42;26.83;;;19.80;;
37085;SDS011;23001;45.952;12.676;2022-12-29T08:47:11;26.83;;;19.70;;
37085;SDS011;23001;45.952;12.676;2022-12-29T08:58:48;29.20;;;21.73;;
37085;SDS011;23001;45.952;12.676;2022-12-29T09:04:41;29.65;;;19.40;;
37085;SDS011;23001;45.952;12.676;2022-12-29T09:07:07;28.05;;;19.45;;
37085;SDS011;23001;45.952;12.676;2022-12-29T09:09:36;31.05;;;20.73;;
37085;SDS011;23001;45.952;12.676;2022-12-29T09:12:02;32.35;;;22.83;;
37085;SDS011;23001;45.952;12.676;2022-12-29T09:14:31;31.27;;;20.75;;
37085;SDS011;23001;45.952;12.676;2022-12-29T09:16:58;31.20;;;21.23;;
37085;SDS011;23001;45.952;12.676;2022-12-29T09:20:07;32.15;;;20.80;;
37085;SDS011;23001;45.952;12.676;2022-12-29T09:29:01;29.25;;;21.00;;
37085;SDS011;23001;45.952;12.676;2022-12-29T09:31:26;32.25;;;21.15;;
37085;SDS011;23001;45.952;12.676;2022-12-29T09:33:55;26.30;;;20.85;;
37085;SDS011;23001;45.952;12.676;2022-12-29T09:50:52;30.55;;;20.48;;
37085;SDS011;23001;45.952;12.676;2022-12-29T09:56:08;29.42;;;21.35;;
37085;SDS011;23001;45.952;12.676;2022-12-29T09:59:08;35.00;;;22.92;;
37085;SDS011;23001;45.952;12.676;2022-12-29T10:08:41;31.83;;;21.08;;
37085;SDS011;23001;45.952;12.676;2022-12-29T10:10:55;32.42;;;22.15;;
37085;SDS011;23001;45.952;12.676;2022-12-29T10:26:14;38.15;;;25.10;;
37085;SDS011;23001;45.952;12.676;2022-12-29T10:32:31;33.60;;;22.90;;
37085;SDS011;23001;45.952;12.676;2022-12-29T10:38:57;35.80;;;22.83;;
37085;SDS011;23001;45.952;12.676;2022-12-29T10:42:18;36.58;;;25.10;;
37085;SDS011;23001;45.952;12.676;2022-12-29T10:44:43;38.35;;;24.98;;
37085;SDS011;23001;45.952;12.676;2022-12-29T10:49:58;36.70;;;25.02;;
37085;SDS011;23001;45.952;12.676;2022-12-29T10:52:26;34.10;;;23.67;;
37085;SDS011;23001;45.952;12.676;2022-12-29T10:55:12;36.67;;;23.15;;
37085;SDS011;23001;45.952;12.676;2022-12-29T10:58:04;32.97;;;22.15;;
37085;SDS011;23001;45.952;12.676;2022-12-29T11:00:32;36.53;;;23.77;;
37085;SDS011;23001;45.952;12.676;2022-12-29T11:19:52;33.55;;;21.58;;
37085;SDS011;23001;45.952;12.676;2022-12-29T11:22:23;31.45;;;22.98;;
37085;SDS011;23001;45.952;12.676;2022-12-29T11:24:54;37.75;;;22.88;;
37085;SDS011;23001;45.952;12.676;2022-12-29T11:27:38;32.97;;;23.08;;
37085;SDS011;23001;45.952;12.676;2022-12-29T11:33:20;31.55;;;22.23;;
37085;SDS011;23001;45.952;12.676;2022-12-29T11:36:02;34.78;;;22.98;;
37085;SDS011;23001;45.952;12.676;2022-12-29T11:38:42;35.25;;;24.73;;
37085;SDS011;23001;45.952;12.676;2022-12-29T11:41:13;33.25;;;23.30;;
37085;SDS011;23001;45.952;12.676;2022-12-29T11:43:52;30.40;;;22.02;;
37085;SDS011;23001;45.952;12.676;2022-12-29T11:53:27;29.80;;;20.83;;
37085;SDS011;23001;45.952;12.676;2022-12-29T12:06:32;31.50;;;21.73;;
37085;SDS011;23001;45.952;12.676;2022-12-29T12:09:05;35.20;;;21.05;;
37085;SDS011;23001;45.952;12.676;2022-12-29T12:11:42;31.95;;;21.63;;
37085;SDS011;23001;45.952;12.676;2022-12-29T12:17:23;28.90;;;20.55;;
37085;SDS011;23001;45.952;12.676;2022-12-29T12:26:51;31.83;;;21.45;;
37085;SDS011;23001;45.952;12.676;2022-12-29T12:29:29;27.70;;;19.92;;
37085;SDS011;23001;45.952;12.676;2022-12-29T12:32:11;30.50;;;21.25;;
37085;SDS011;23001;45.952;12.676;2022-12-29T12:34:42;28.58;;;20.13;;
37085;SDS011;23001;45.952;12.676;2022-12-29T12:56:44;31.08;;;20.88;;
37085;SDS011;23001;45.952;12.676;2022-12-29T14:15:24;35.00;;;21.55;;
37085;SDS011;23001;45.952;12.676;2022-12-29T15:06:16;41.83;;;25.13;;
37085;SDS011;23001;45.952;12.676;2022-12-29T15:08:43;34.00;;;23.75;;
37085;SDS011;23001;45.952;12.676;2022-12-29T15:18:11;50.92;;;30.65;;
37085;SDS011;23001;45.952;12.676;2022-12-29T15:21:13;35.90;;;24.75;;
37085;SDS011;23001;45.952;12.676;2022-12-29T15:23:39;39.40;;;24.73;;
37085;SDS011;23001;45.952;12.676;2022-12-29T15:26:10;37.28;;;24.88;;
37085;SDS011;23001;45.952;12.676;2022-12-29T15:34:25;39.50;;;24.65;;
37085;SDS011;23001;45.952;12.676;2022-12-29T15:36:55;35.67;;;24.13;;
37085;SDS011;23001;45.952;12.676;2022-12-29T15:39:28;35.50;;;23.58;;
37085;SDS011;23001;45.952;12.676;2022-12-29T15:42:09;35.67;;;25.42;;
37085;SDS011;23001;45.952;12.676;2022-12-29T15:44:44;36.63;;;25.40;;
37085;SDS011;23001;45.952;12.676;2022-12-29T15:50:24;38.83;;;26.58;;
37085;SDS011;23001;45.952;12.676;2022-12-29T15:52:53;35.97;;;25.95;;
37085;SDS011;23001;45.952;12.676;2022-12-29T16:02:50;38.47;;;25.40;;
37085;SDS011;23001;45.952;12.676;2022-12-29T16:05:18;36.05;;;26.70;;
37085;SDS011;23001;45.952;12.676;2022-12-29T16:07:51;37.90;;;25.35;;
37085;SDS011;23001;45.952;12.676;2022-12-29T16:10:22;41.60;;;26.83;;
37085;SDS011;23001;45.952;12.676;2022-12-29T16:13:02;41.38;;;27.90;;
37085;SDS011;23001;45.952;12.676;2022-12-29T16:15:30;45.30;;;30.83;;
37085;SDS011;23001;45.952;12.676;2022-12-29T16:17:56;45.00;;;28.67;;
37085;SDS011;23001;45.952;12.676;2022-12-29T16:20:23;42.75;;;29.02;;
37085;SDS011;23001;45.952;12.676;2022-12-29T16:22:56;40.55;;;27.77;;
37085;SDS011;23001;45.952;12.676;2022-12-29T16:27:50;42.97;;;31.73;;
37085;SDS011;23001;45.952;12.676;2022-12-29T16:32:53;45.75;;;31.55;;
37085;SDS011;23001;45.952;12.676;2022-12-29T16:35:25;47.33;;;30.25;;
37085;SDS011;23001;45.952;12.676;2022-12-29T17:03:29;51.67;;;33.60;;
37085;SDS011;23001;45.952;12.676;2022-12-29T17:05:59;47.38;;;31.33;;
37085;SDS011;23001;45.952;12.676;2022-12-29T17:08:25;47.17;;;31.35;;
37085;SDS011;23001;45.952;12.676;2022-12-29T17:10:52;46.53;;;31.10;;
37085;SDS011;23001;45.952;12.676;2022-12-29T17:13:41;49.28;;;31.83;;
37085;SDS011;23001;45.952;12.676;2022-12-29T17:16:08;46.20;;;30.75;;
37085;SDS011;23001;45.952;12.676;2022-12-29T17:18:38;47.85;;;32.33;;
37085;SDS011;23001;45.952;12.676;2022-12-29T17:21:29;45.50;;;32.55;;
37085;SDS011;23001;45.952;12.676;2022-12-29T17:23:58;48.70;;;34.47;;
37085;SDS011;23001;45.952;12.676;2022-12-29T17:33:37;116.88;;;76.63;;
37085;SDS011;23001;45.952;12.676;2022-12-29T17:36:10;100.47;;;64.70;;
37085;SDS011;23001;45.952;12.676;2022-12-29T17:38:36;75.93;;;50.03;;
37085;SDS011;23001;45.952;12.676;2022-12-29T17:41:07;65.30;;;43.05;;
37085;SDS011;23001;45.952;12.676;2022-12-29T17:43:38;63.65;;;43.38;;
37085;SDS011;23001;45.952;12.676;2022-12-29T17:46:05;58.03;;;40.05;;
37085;SDS011;23001;45.952;12.676;2022-12-29T17:48:37;77.35;;;51.25;;
37085;SDS011;23001;45.952;12.676;2022-12-29T17:51:03;72.85;;;50.78;;
37085;SDS011;23001;45.952;12.676;2022-12-29T17:53:29;70.50;;;48.83;;
37085;SDS011;23001;45.952;12.676;2022-12-29T17:55:56;57.70;;;37.30;;
37085;SDS011;23001;45.952;12.676;2022-12-29T17:58:31;52.50;;;34.08;;
37085;SDS011;23001;45.952;12.676;2022-12-29T18:01:00;47.97;;;33.63;;
37085;SDS011;23001;45.952;12.676;2022-12-29T18:03:36;49.53;;;33.97;;
37085;SDS011;23001;45.952;12.676;2022-12-29T18:06:05;60.45;;;40.60;;
37085;SDS011;23001;45.952;12.676;2022-12-29T18:08:35;49.50;;;32.55;;
37085;SDS011;23001;45.952;12.676;2022-12-29T18:11:15;45.83;;;29.83;;
37085;SDS011;23001;45.952;12.676;2022-12-29T18:13:47;42.97;;;29.63;;
37085;SDS011;23001;45.952;12.676;2022-12-29T18:19:09;48.90;;;32.38;;
37085;SDS011;23001;45.952;12.676;2022-12-29T18:21:42;45.67;;;29.02;;
37085;SDS011;23001;45.952;12.676;2022-12-29T18:24:10;46.90;;;30.42;;
37085;SDS011;23001;45.952;12.676;2022-12-29T18:26:39;41.40;;;29.80;;
37085;SDS011;23001;45.952;12.676;2022-12-29T18:29:05;38.53;;;27.70;;
37085;SDS011;23001;45.952;12.676;2022-12-29T18:31:33;45.00;;;30.15;;
37085;SDS011;23001;45.952;12.676;2022-12-29T18:34:01;41.78;;;29.92;;
37085;SDS011;23001;45.952;12.676;2022-12-29T18:39:50;45.45;;;29.73;;
37085;SDS011;23001;45.952;12.676;2022-12-29T18:42:16;47.05;;;32.25;;
37085;SDS011;23001;45.952;12.676;2022-12-29T18:44:44;48.72;;;32.42;;
37085;SDS011;23001;45.952;12.676;2022-12-29T18:47:11;70.50;;;46.10;;
37085;SDS011;23001;45.952;12.676;2022-12-29T18:49:37;54.10;;;36.67;;
37085;SDS011;23001;45.952;12.676;2022-12-29T18:52:03;46.60;;;31.10;;
37085;SDS011;23001;45.952;12.676;2022-12-29T18:57:09;40.83;;;29.40;;
37085;SDS011;23001;45.952;12.676;2022-12-29T18:59:34;46.78;;;32.22;;
37085;SDS011;23001;45.952;12.676;2022-12-29T19:02:00;44.72;;;32.17;;
37085;SDS011;23001;45.952;12.676;2022-12-29T19:04:26;43.80;;;30.35;;
37085;SDS011;23001;45.952;12.676;2022-12-29T19:06:52;50.25;;;32.10;;
37085;SDS011;23001;45.952;12.676;2022-12-29T19:09:17;43.30;;;30.85;;
37085;SDS011;23001;45.952;12.676;2022-12-29T19:11:43;47.72;;;32.17;;
37085;SDS011;23001;45.952;12.676;2022-12-29T19:14:13;46.53;;;32.65;;
37085;SDS011;23001;45.952;12.676;2022-12-29T19:16:41;52.03;;;32.88;;
37085;SDS011;23001;45.952;12.676;2022-12-29T19:19:08;49.58;;;33.08;;
37085;SDS011;23001;45.952;12.676;2022-12-29T19:21:37;46.45;;;34.40;;
37085;SDS011;23001;45.952;12.676;2022-12-29T19:24:03;46.22;;;34.70;;
37085;SDS011;23001;45.952;12.676;2022-12-29T19:26:30;47.45;;;33.72;;
37085;SDS011;23001;45.952;12.676;2022-12-29T19:28:59;49.78;;;34.28;;
37085;SDS011;23001;45.952;12.676;2022-12-29T19:31:25;51.10;;;35.55;;
37085;SDS011;23001;45.952;12.676;2022-12-29T19:33:51;55.05;;;36.38;;
37085;SDS011;23001;45.952;12.676;2022-12-29T19:36:18;53.10;;;37.47;;
37085;SDS011;23001;45.952;12.676;2022-12-29T19:38:44;52.05;;;35.22;;
37085;SDS011;23001;45.952;12.676;2022-12-29T19:41:11;48.92;;;33.05;;
37085;SDS011;23001;45.952;12.676;2022-12-29T19:43:37;44.22;;;32.53;;
37085;SDS011;23001;45.952;12.676;2022-12-29T19:46:06;47.13;;;33.17;;
37085;SDS011;23001;45.952;12.676;2022-12-29T19:48:34;52.42;;;35.00;;
37085;SDS011;23001;45.952;12.676;2022-12-29T19:51:07;52.95;;;35.78;;
37085;SDS011;23001;45.952;12.676;2022-12-29T19:53:35;48.17;;;35.25;;
37085;SDS011;23001;45.952;12.676;2022-12-29T19:56:02;54.42;;;35.22;;
37085;SDS011;23001;45.952;12.676;2022-12-29T19:58:29;52.35;;;37.83;;
37085;SDS011;23001;45.952;12.676;2022-12-29T20:01:02;49.67;;;35.75;;
37085;SDS011;23001;45.952;12.676;2022-12-29T20:03:46;51.17;;;36.53;;
37085;SDS011;23001;45.952;12.676;2022-12-29T20:06:13;52.85;;;36.03;;
37085;SDS011;23001;45.952;12.676;2022-12-29T20:08:39;53.60;;;37.65;;
37085;SDS011;23001;45.952;12.676;2022-12-29T20:11:09;56.63;;;38.55;;
37085;SDS011;23001;45.952;12.676;2022-12-29T20:13:37;59.53;;;40.47;;
37085;SDS011;23001;45.952;12.676;2022-12-29T20:16:04;73.82;;;47.60;;
37085;SDS011;23001;45.952;12.676;2022-12-29T20:18:32;69.82;;;46.85;;
37085;SDS011;23001;45.952;12.676;2022-12-29T20:23:32;60.65;;;40.80;;
37085;SDS011;23001;45.952;12.676;2022-12-29T20:25:58;57.05;;;39.30;;
37085;SDS011;23001;45.952;12.676;2022-12-29T20:28:25;56.35;;;38.45;;
37085;SDS011;23001;45.952;12.676;2022-12-29T20:30:53;51.17;;;36.20;;
37085;SDS011;23001;45.952;12.676;2022-12-29T20:33:27;53.07;;;35.00;;
37085;SDS011;23001;45.952;12.676;2022-12-29T20:36:02;49.70;;;34.03;;
37085;SDS011;23001;45.952;12.676;2022-12-29T20:38:31;52.15;;;35.85;;
37085;SDS011;23001;45.952;12.676;2022-12-29T20:40:57;49.67;;;35.10;;
37085;SDS011;23001;45.952;12.676;2022-12-29T20:43:23;48.85;;;36.28;;
37085;SDS011;23001;45.952;12.676;2022-12-29T20:45:48;51.67;;;36.85;;
37085;SDS011;23001;45.952;12.676;2022-12-29T20:48:14;50.45;;;34.80;;
37085;SDS011;23001;45.952;12.676;2022-12-29T20:50:40;53.92;;;35.67;;
37085;SDS011;23001;45.952;12.676;2022-12-29T20:53:06;61.47;;;41.58;;
37085;SDS011;23001;45.952;12.676;2022-12-29T20:55:31;60.38;;;40.10;;
37085;SDS011;23001;45.952;12.676;2022-12-29T20:57:57;54.22;;;39.10;;
37085;SDS011;23001;45.952;12.676;2022-12-29T21:00:23;58.88;;;40.50;;
37085;SDS011;23001;45.952;12.676;2022-12-29T21:02:50;52.67;;;38.97;;
37085;SDS011;23001;45.952;12.676;2022-12-29T21:05:17;54.40;;;38.42;;
37085;SDS011;23001;45.952;12.676;2022-12-29T21:07:43;49.88;;;34.40;;
37085;SDS011;23001;45.952;12.676;2022-12-29T21:10:09;48.40;;;35.72;;
37085;SDS011;23001;45.952;12.676;2022-12-29T21:12:35;53.47;;;37.03;;
37085;SDS011;23001;45.952;12.676;2022-12-29T21:15:00;56.05;;;38.28;;
37085;SDS011;23001;45.952;12.676;2022-12-29T21:17:26;52.40;;;38.38;;
37085;SDS011;23001;45.952;12.676;2022-12-29T21:19:52;52.83;;;37.53;;
37085;SDS011;23001;45.952;12.676;2022-12-29T21:22:18;51.38;;;37.15;;
37085;SDS011;23001;45.952;12.676;2022-12-29T21:24:43;55.22;;;38.88;;
37085;SDS011;23001;45.952;12.676;2022-12-29T21:27:09;53.10;;;37.80;;
37085;SDS011;23001;45.952;12.676;2022-12-29T21:29:35;55.60;;;37.25;;
37085;SDS011;23001;45.952;12.676;2022-12-29T21:32:01;56.38;;;38.95;;
37085;SDS011;23001;45.952;12.676;2022-12-29T21:34:27;56.50;;;38.45;;
37085;SDS011;23001;45.952;12.676;2022-12-29T21:36:53;53.88;;;36.83;;
37085;SDS011;23001;45.952;12.676;2022-12-29T21:39:19;52.05;;;38.33;;
37085;SDS011;23001;45.952;12.676;2022-12-29T21:41:44;55.83;;;39.47;;
37085;SDS011;23001;45.952;12.676;2022-12-29T21:44:11;64.18;;;42.80;;
37085;SDS011;23001;45.952;12.676;2022-12-29T21:46:55;54.45;;;37.88;;
37085;SDS011;23001;45.952;12.676;2022-12-29T21:49:21;53.95;;;39.60;;
37085;SDS011;23001;45.952;12.676;2022-12-29T21:51:49;53.33;;;37.47;;
37085;SDS011;23001;45.952;12.676;2022-12-29T21:54:25;53.38;;;39.90;;
37085;SDS011;23001;45.952;12.676;2022-12-29T21:57:11;54.97;;;37.55;;
37085;SDS011;23001;45.952;12.676;2022-12-29T21:59:57;53.20;;;37.33;;
37085;SDS011;23001;45.952;12.676;2022-12-29T22:02:41;63.13;;;43.95;;
37085;SDS011;23001;45.952;12.676;2022-12-29T22:05:25;75.88;;;46.80;;
37085;SDS011;23001;45.952;12.676;2022-12-29T22:08:09;63.17;;;43.67;;
37085;SDS011;23001;45.952;12.676;2022-12-29T22:10:53;65.13;;;43.78;;
37085;SDS011;23001;45.952;12.676;2022-12-29T22:13:37;60.45;;;41.47;;
37085;SDS011;23001;45.952;12.676;2022-12-29T22:16:05;64.32;;;43.92;;
37085;SDS011;23001;45.952;12.676;2022-12-29T22:18:32;63.72;;;42.60;;
37085;SDS011;23001;45.952;12.676;2022-12-29T22:21:01;61.88;;;41.05;;
37085;SDS011;23001;45.952;12.676;2022-12-29T22:23:28;57.88;;;41.65;;
37085;SDS011;23001;45.952;12.676;2022-12-29T22:25:54;59.88;;;41.33;;
37085;SDS011;23001;45.952;12.676;2022-12-29T22:28:19;62.45;;;42.15;;
37085;SDS011;23001;45.952;12.676;2022-12-29T22:30:45;60.00;;;41.95;;
37085;SDS011;23001;45.952;12.676;2022-12-29T22:33:11;57.67;;;41.67;;
37085;SDS011;23001;45.952;12.676;2022-12-29T22:35:36;59.75;;;42.33;;
37085;SDS011;23001;45.952;12.676;2022-12-29T22:38:02;59.55;;;41.92;;
37085;SDS011;23001;45.952;12.676;2022-12-29T22:40:28;58.92;;;41.42;;
37085;SDS011;23001;45.952;12.676;2022-12-29T22:42:54;60.25;;;39.95;;
37085;SDS011;23001;45.952;12.676;2022-12-29T22:45:19;54.95;;;40.92;;
37085;SDS011;23001;45.952;12.676;2022-12-29T22:47:45;56.30;;;40.72;;
37085;SDS011;23001;45.952;12.676;2022-12-29T22:50:11;56.15;;;39.55;;
37085;SDS011;23001;45.952;12.676;2022-12-29T22:52:37;55.45;;;38.30;;
37085;SDS011;23001;45.952;12.676;2022-12-29T22:55:03;59.20;;;41.55;;
37085;SDS011;23001;45.952;12.676;2022-12-29T22:57:29;56.15;;;40.20;;
37085;SDS011;23001;45.952;12.676;2022-12-29T22:59:55;60.72;;;41.83;;
37085;SDS011;23001;45.952;12.676;2022-12-29T23:02:21;59.22;;;42.78;;
37085;SDS011;23001;45.952;12.676;2022-12-29T23:04:47;63.35;;;42.97;;
37085;SDS011;23001;45.952;12.676;2022-12-29T23:07:12;62.53;;;44.38;;
37085;SDS011;23001;45.952;12.676;2022-12-29T23:09:38;63.88;;;43.08;;
37085;SDS011;23001;45.952;12.676;2022-12-29T23:12:04;60.20;;;41.50;;
37085;SDS011;23001;45.952;12.676;2022-12-29T23:14:29;59.63;;;41.55;;
37085;SDS011;23001;45.952;12.676;2022-12-29T23:16:55;62.33;;;43.20;;
37085;SDS011;23001;45.952;12.676;2022-12-29T23:19:21;60.33;;;43.63;;
37085;SDS011;23001;45.952;12.676;2022-12-29T23:21:47;61.30;;;42.63;;
37085;SDS011;23001;45.952;12.676;2022-12-29T23:24:13;63.33;;;43.65;;
37085;SDS011;23001;45.952;12.676;2022-12-29T23:26:40;61.80;;;43.08;;
37085;SDS011;23001;45.952;12.676;2022-12-29T23:29:11;60.17;;;41.88;;
37085;SDS011;23001;45.952;12.676;2022-12-29T23:31:39;61.83;;;43.63;;
37085;SDS011;23001;45.952;12.676;2022-12-29T23:34:06;57.50;;;41.35;;